createdAt,value
2022-12-18T00:01:47.013Z,20.19
2022-12-18T00:04:28.097Z,20.28
2022-12-18T00:06:58.222Z,20.39
2022-12-18T00:09:31.293Z,20.36
2022-12-18T00:14:45.921Z,20.22
2022-12-18T00:17:15.746Z,20.38
2022-12-18T00:19:45.445Z,20.35
2022-12-18T00:22:15.159Z,20.33
2022-12-18T00:24:44.866Z,20.46
2022-12-18T00:27:14.675Z,20.50
2022-12-18T00:29:44.808Z,20.47
2022-12-18T00:32:14.524Z,20.45
2022-12-18T00:34:44.226Z,20.46
2022-12-18T00:37:19.759Z,20.36
2022-12-18T00:39:53.906Z,20.35
2022-12-18T00:42:42.349Z,20.19
2022-12-18T00:45:13.167Z,20.30
2022-12-18T00:47:43.369Z,20.36
2022-12-18T00:50:13.120Z,20.39
2022-12-18T00:52:44.999Z,20.32
2022-12-18T00:55:16.451Z,20.33
2022-12-18T00:57:46.763Z,20.35
2022-12-18T01:00:17.695Z,20.33
2022-12-18T01:02:47.914Z,20.30
2022-12-18T01:05:18.040Z,20.18
2022-12-18T01:07:47.841Z,20.19
2022-12-18T01:10:17.813Z,20.26
2022-12-18T01:12:47.924Z,20.14
2022-12-18T01:15:19.226Z,20.08
2022-12-18T01:17:57.122Z,20.02
2022-12-18T01:20:29.978Z,19.98
2022-12-18T01:23:00.905Z,19.92
2022-12-18T01:25:30.865Z,19.87
2022-12-18T01:28:00.649Z,19.81
2022-12-18T01:30:30.364Z,19.84
2022-12-18T01:33:00.197Z,19.85
2022-12-18T01:35:30.117Z,19.81
2022-12-18T01:38:00.017Z,19.82
2022-12-18T01:40:31.331Z,19.88
2022-12-18T01:43:01.537Z,19.94
2022-12-18T01:45:33.621Z,19.95
2022-12-18T01:48:09.042Z,19.92
2022-12-18T01:50:45.332Z,19.95
2022-12-18T01:53:17.701Z,19.95
2022-12-18T01:55:57.029Z,19.98
2022-12-18T01:58:45.901Z,20.01
2022-12-18T02:01:16.524Z,20.02
2022-12-18T02:03:47.190Z,20.02
2022-12-18T02:06:28.392Z,20.21
2022-12-18T02:09:23.839Z,20.15
2022-12-18T02:12:07.388Z,20.09
2022-12-18T02:14:56.611Z,20.11
2022-12-18T02:18:06.169Z,20.11
2022-12-18T02:20:45.541Z,20.16
2022-12-18T02:23:36.499Z,20.21
2022-12-18T02:26:31.675Z,20.25
2022-12-18T02:29:14.416Z,20.22
2022-12-18T02:31:57.126Z,20.18
2022-12-18T02:34:31.600Z,20.21
2022-12-18T02:37:05.095Z,20.14
2022-12-18T02:39:40.443Z,20.07
2022-12-18T02:42:14.351Z,19.97
2022-12-18T02:44:53.126Z,19.88
2022-12-18T02:47:31.958Z,19.84
2022-12-18T02:50:10.497Z,19.88
2022-12-18T02:53:03.277Z,19.84
2022-12-18T02:55:36.948Z,19.88
2022-12-18T02:58:40.858Z,19.87
2022-12-18T03:01:17.836Z,19.84
2022-12-18T03:04:00.357Z,19.78
2022-12-18T03:06:35.963Z,19.79
2022-12-18T03:09:12.669Z,19.78
2022-12-18T03:12:05.402Z,19.79
2022-12-18T03:14:39.634Z,19.77
2022-12-18T03:17:15.808Z,19.81
2022-12-18T03:19:48.787Z,19.78
2022-12-18T03:22:20.565Z,19.77
2022-12-18T03:24:55.994Z,19.78
2022-12-18T03:27:28.016Z,19.75
2022-12-18T03:30:09.579Z,19.77
2022-12-18T03:32:57.570Z,19.77
2022-12-18T03:35:37.318Z,19.75
2022-12-18T03:38:08.892Z,19.77
2022-12-18T03:40:51.792Z,19.74
2022-12-18T03:43:41.841Z,19.77
2022-12-18T03:46:44.117Z,19.73
2022-12-18T03:49:50.301Z,19.66
2022-12-18T03:52:32.743Z,19.61
2022-12-18T03:55:04.034Z,19.57
2022-12-18T03:57:36.156Z,19.58
2022-12-18T04:00:15.618Z,19.58
2022-12-18T04:03:08.456Z,19.61
2022-12-18T04:05:48.204Z,19.61
2022-12-18T04:08:20.736Z,19.56
2022-12-18T04:10:59.324Z,19.54
2022-12-18T04:13:40.594Z,19.40
2022-12-18T04:16:17.097Z,19.31
2022-12-18T04:18:49.246Z,19.26
2022-12-18T04:21:19.559Z,19.27
2022-12-18T04:23:50.867Z,19.24
2022-12-18T04:26:25.025Z,19.24
2022-12-18T04:29:24.438Z,19.36
2022-12-18T04:31:54.960Z,19.36
2022-12-18T04:34:25.735Z,19.34
2022-12-18T04:36:56.879Z,19.37
2022-12-18T04:39:28.439Z,19.45
2022-12-18T04:42:03.168Z,19.49
2022-12-18T04:44:33.392Z,19.45
2022-12-18T04:47:03.114Z,19.45
2022-12-18T04:49:32.871Z,19.47
2022-12-18T04:52:02.580Z,19.53
2022-12-18T04:54:32.313Z,19.57
2022-12-18T04:57:02.421Z,19.57
2022-12-18T04:59:32.371Z,19.51
2022-12-18T05:02:02.161Z,19.58
2022-12-18T05:04:31.916Z,19.58
2022-12-18T05:07:01.955Z,19.60
2022-12-18T05:09:31.854Z,19.58
2022-12-18T05:12:01.898Z,19.54
2022-12-18T05:14:31.708Z,19.56
2022-12-18T05:17:01.550Z,19.51
2022-12-18T05:19:31.356Z,19.50
2022-12-18T05:22:01.245Z,19.49
2022-12-18T05:24:30.961Z,19.43
2022-12-18T05:27:01.122Z,19.45
2022-12-18T05:29:31.077Z,19.37
2022-12-18T05:32:00.990Z,19.34
2022-12-18T05:34:30.881Z,19.31
2022-12-18T05:37:00.565Z,19.33
2022-12-18T05:39:30.325Z,19.31
2022-12-18T05:42:00.198Z,19.33
2022-12-18T05:44:29.883Z,19.36
2022-12-18T05:46:59.670Z,19.37
2022-12-18T05:49:29.785Z,19.40
2022-12-18T05:51:59.522Z,19.43
2022-12-18T05:54:33.110Z,19.40
2022-12-18T05:57:03.233Z,19.41
2022-12-18T05:59:32.944Z,19.43
2022-12-18T06:02:02.734Z,19.43
2022-12-18T06:04:32.543Z,19.43
2022-12-18T06:07:02.292Z,19.41
2022-12-18T06:09:33.047Z,19.37
2022-12-18T06:12:03.210Z,19.40
2022-12-18T06:14:32.904Z,19.33
2022-12-18T06:17:03.013Z,19.31
2022-12-18T06:19:32.781Z,19.40
2022-12-18T06:22:02.677Z,19.39
2022-12-18T06:24:33.788Z,19.37
2022-12-18T06:27:04.598Z,19.37
2022-12-18T06:29:34.336Z,19.41
2022-12-18T06:32:04.069Z,19.41
2022-12-18T06:34:34.593Z,19.37
2022-12-18T06:37:04.456Z,19.40
2022-12-18T06:39:34.190Z,19.41
2022-12-18T06:42:04.759Z,19.46
2022-12-18T06:44:34.863Z,19.51
2022-12-18T06:47:04.601Z,19.47
2022-12-18T06:49:34.362Z,19.53
2022-12-18T06:52:04.155Z,19.50
2022-12-18T06:54:33.980Z,19.51
2022-12-18T06:57:03.685Z,19.54
2022-12-18T06:59:33.387Z,19.54
2022-12-18T07:02:03.185Z,19.50
2022-12-18T07:04:33.350Z,19.50
2022-12-18T07:07:03.083Z,19.50
2022-12-18T07:09:33.899Z,19.53
2022-12-18T07:12:04.075Z,19.50
2022-12-18T07:14:34.022Z,19.53
2022-12-18T07:17:04.318Z,19.51
2022-12-18T07:19:34.510Z,19.53
2022-12-18T07:22:04.293Z,19.47
2022-12-18T07:24:36.656Z,19.45
2022-12-18T07:27:06.746Z,19.46
2022-12-18T07:29:38.034Z,19.34
2022-12-18T07:32:10.711Z,19.26
2022-12-18T07:34:42.592Z,19.24
2022-12-18T07:37:12.515Z,19.29
2022-12-18T07:39:42.348Z,19.27
2022-12-18T07:42:30.284Z,19.23
2022-12-18T07:45:04.257Z,19.23
2022-12-18T07:47:38.362Z,19.23
2022-12-18T07:50:08.999Z,19.19
2022-12-18T07:52:38.861Z,19.24
2022-12-18T07:55:08.831Z,19.26
2022-12-18T07:57:57.761Z,19.24
2022-12-18T08:00:28.879Z,19.23
2022-12-18T08:02:59.041Z,19.26
2022-12-18T08:05:30.496Z,19.27
2022-12-18T08:08:01.160Z,19.34
2022-12-18T08:10:31.298Z,19.40
2022-12-18T08:13:04.845Z,19.37
2022-12-18T08:15:35.488Z,19.39
2022-12-18T08:18:05.981Z,19.39
2022-12-18T08:20:38.322Z,19.43
2022-12-18T08:23:08.207Z,19.46
2022-12-18T08:25:37.980Z,19.46
2022-12-18T08:28:08.021Z,19.46
2022-12-18T08:30:38.671Z,19.49
2022-12-18T08:33:08.924Z,19.50
2022-12-18T08:35:45.425Z,19.51
2022-12-18T08:38:16.031Z,19.53
2022-12-18T08:40:45.805Z,19.54
2022-12-18T08:43:34.190Z,19.50
2022-12-18T08:46:04.543Z,19.57
2022-12-18T08:48:34.507Z,19.57
2022-12-18T08:51:04.715Z,19.61
2022-12-18T08:53:35.925Z,19.61
2022-12-18T08:56:06.918Z,19.63
2022-12-18T08:58:37.050Z,19.64
2022-12-18T09:01:09.633Z,19.66
2022-12-18T09:03:40.658Z,19.68
2022-12-18T09:06:11.580Z,19.75
2022-12-18T09:08:41.667Z,19.74
2022-12-18T09:11:25.375Z,19.78
2022-12-18T09:13:56.033Z,19.81
2022-12-18T09:16:31.972Z,19.84
2022-12-18T09:19:03.513Z,19.89
2022-12-18T09:21:36.774Z,19.85
2022-12-18T09:24:08.767Z,19.84
2022-12-18T09:26:39.165Z,19.82
2022-12-18T09:29:10.364Z,19.81
2022-12-18T09:31:41.582Z,19.79
2022-12-18T09:34:12.087Z,19.82
2022-12-18T09:36:42.336Z,19.81
2022-12-18T09:39:13.807Z,19.77
2022-12-18T09:41:57.283Z,19.78
2022-12-18T09:44:45.463Z,19.71
2022-12-18T09:47:38.029Z,19.68
2022-12-18T09:50:31.750Z,19.67
2022-12-18T09:53:11.245Z,19.58
2022-12-18T09:55:47.356Z,19.53
2022-12-18T09:58:47.811Z,19.50
2022-12-18T10:01:23.442Z,19.54
2022-12-18T10:03:54.229Z,19.53
2022-12-18T10:06:35.358Z,19.58
2022-12-18T10:09:45.025Z,19.60
2022-12-18T10:12:40.656Z,19.57
2022-12-18T10:15:47.689Z,19.61
2022-12-18T10:18:23.397Z,19.64
2022-12-18T10:21:01.378Z,19.74
2022-12-18T10:23:48.019Z,19.79
2022-12-18T10:26:18.518Z,19.79
2022-12-18T10:28:48.658Z,19.75
2022-12-18T10:31:25.351Z,19.79
2022-12-18T10:33:58.371Z,19.91
2022-12-18T10:36:28.384Z,20.04
2022-12-18T10:39:27.272Z,20.12
2022-12-18T10:42:33.585Z,20.29
2022-12-18T10:45:17.875Z,20.43
2022-12-18T10:47:52.204Z,20.53
2022-12-18T10:51:08.738Z,20.59
2022-12-18T10:53:30.316Z,20.53
2022-12-18T10:56:07.054Z,20.53
2022-12-18T10:58:42.151Z,20.59
2022-12-18T11:01:19.759Z,20.53
2022-12-18T11:04:03.223Z,20.65
2022-12-18T11:06:33.541Z,20.56
2022-12-18T11:09:22.108Z,20.69
2022-12-18T11:11:59.015Z,20.81
2022-12-18T11:14:36.204Z,20.86
2022-12-18T11:17:25.416Z,20.94
2022-12-18T11:19:58.763Z,21.05
2022-12-18T11:22:31.665Z,21.15
2022-12-18T11:25:31.870Z,21.28
2022-12-18T11:28:02.323Z,21.28
2022-12-18T11:30:35.507Z,21.30
2022-12-18T11:33:25.287Z,21.25
2022-12-18T11:36:00.709Z,21.21
2022-12-18T11:38:44.030Z,21.25
2022-12-18T11:41:23.430Z,21.38
2022-12-18T11:43:58.473Z,21.51
2022-12-18T11:46:42.621Z,21.71
2022-12-18T11:49:13.066Z,21.72
2022-12-18T11:52:05.777Z,21.85
2022-12-18T11:54:35.892Z,22.03
2022-12-18T11:57:15.484Z,22.10
2022-12-18T12:00:20.898Z,22.27
2022-12-18T12:03:08.559Z,22.45
2022-12-18T12:06:08.080Z,22.58
2022-12-18T12:09:29.372Z,22.81
2022-12-18T12:12:49.077Z,22.85
2022-12-18T12:15:46.483Z,23.08
2022-12-18T12:18:40.662Z,23.22
2022-12-18T12:21:15.980Z,23.42
2022-12-18T12:24:07.008Z,23.60
2022-12-18T12:26:47.847Z,23.51
2022-12-18T12:29:21.387Z,23.80
2022-12-18T12:32:30.296Z,24.05
2022-12-18T12:35:09.878Z,24.36
2022-12-18T12:37:54.644Z,24.62
2022-12-18T12:43:31.674Z,24.82
2022-12-18T12:46:10.130Z,24.98
2022-12-18T12:48:46.874Z,25.03
2022-12-18T12:51:17.158Z,24.48
2022-12-18T12:53:47.881Z,24.05
2022-12-18T12:56:21.032Z,24.01
2022-12-18T12:59:08.748Z,23.94
2022-12-18T13:02:10.741Z,24.08
2022-12-18T13:05:14.317Z,24.24
2022-12-18T13:07:53.542Z,24.43
2022-12-18T13:10:38.809Z,24.73
2022-12-18T13:13:17.167Z,25.10
2022-12-18T13:16:10.272Z,25.66
2022-12-18T13:18:50.463Z,25.83
2022-12-18T13:21:26.791Z,26.58
2022-12-18T13:23:59.459Z,27.26
2022-12-18T13:26:29.300Z,27.63
2022-12-18T13:29:01.039Z,27.94
2022-12-18T13:31:42.840Z,28.04
2022-12-18T13:34:26.897Z,27.30
2022-12-18T13:37:19.334Z,27.06
2022-12-18T13:39:49.664Z,26.34
2022-12-18T13:42:39.964Z,26.09
2022-12-18T13:45:57.372Z,25.39
2022-12-18T13:48:29.793Z,25.24
2022-12-18T13:51:09.490Z,25.30
2022-12-18T13:53:51.856Z,25.37
2022-12-18T13:56:27.596Z,25.34
2022-12-18T13:59:24.280Z,25.30
2022-12-18T14:02:18.788Z,24.91
2022-12-18T14:04:49.022Z,25.15
2022-12-18T14:07:22.182Z,24.94
2022-12-18T14:10:12.038Z,24.90
2022-12-18T14:13:02.254Z,25.04
2022-12-18T14:15:41.832Z,25.06
2022-12-18T14:18:29.152Z,25.24
2022-12-18T14:21:02.043Z,25.28
2022-12-18T14:23:43.424Z,25.18
2022-12-18T14:26:22.439Z,25.25
2022-12-18T14:28:53.834Z,25.31
2022-12-18T14:31:29.282Z,25.20
2022-12-18T14:33:59.384Z,25.14
2022-12-18T14:36:31.060Z,25.24
2022-12-18T14:39:01.792Z,25.28
2022-12-18T14:41:31.698Z,25.35
2022-12-18T14:44:09.320Z,25.64
2022-12-18T14:46:42.510Z,25.61
2022-12-18T14:49:36.500Z,25.93
2022-12-18T14:52:30.177Z,26.13
2022-12-18T14:55:00.391Z,26.19
2022-12-18T14:57:40.002Z,25.99
2022-12-18T15:00:18.906Z,26.17
2022-12-18T15:02:55.888Z,26.51
2022-12-18T15:05:35.712Z,26.70
2022-12-18T15:08:06.078Z,26.75
2022-12-18T15:10:36.827Z,26.84
2022-12-18T15:13:06.480Z,27.03
2022-12-18T15:15:39.969Z,27.10
2022-12-18T15:18:10.485Z,27.22
2022-12-18T15:20:54.111Z,26.92
2022-12-18T15:23:47.505Z,26.58
2022-12-18T15:26:19.493Z,26.51
2022-12-18T15:28:57.192Z,26.39
2022-12-18T15:31:31.920Z,26.75
2022-12-18T15:34:12.038Z,27.03
2022-12-18T15:36:42.798Z,26.75
2022-12-18T15:39:15.841Z,26.39
2022-12-18T15:42:05.785Z,26.43
2022-12-18T15:44:36.087Z,26.68
2022-12-18T15:47:05.899Z,26.43
2022-12-18T15:49:35.644Z,26.45
2022-12-18T15:52:05.677Z,26.31
2022-12-18T15:54:53.660Z,26.39
2022-12-18T15:57:27.114Z,26.26
2022-12-18T16:00:01.753Z,25.97
2022-12-18T16:02:34.359Z,25.86
2022-12-18T16:05:04.647Z,25.89
2022-12-18T16:07:34.419Z,25.94
2022-12-18T16:10:04.200Z,25.93
2022-12-18T16:12:34.489Z,25.83
2022-12-18T16:15:05.153Z,25.66
2022-12-18T16:17:36.285Z,25.75
2022-12-18T16:20:06.803Z,25.79
2022-12-18T16:22:36.496Z,25.76
2022-12-18T16:25:07.359Z,25.69
2022-12-18T16:27:37.214Z,25.64
2022-12-18T16:30:07.748Z,25.72
2022-12-18T16:32:37.498Z,25.72
2022-12-18T16:35:07.673Z,25.86
2022-12-18T16:37:37.379Z,25.85
2022-12-18T16:40:08.364Z,25.48
2022-12-18T16:42:39.453Z,25.34
2022-12-18T16:45:11.737Z,25.28
2022-12-18T16:47:42.205Z,25.24
2022-12-18T16:50:12.457Z,25.27
2022-12-18T16:52:42.826Z,25.07
2022-12-18T16:55:12.542Z,25.08
2022-12-18T16:57:42.224Z,25.10
2022-12-18T17:00:13.190Z,25.25
2022-12-18T17:02:43.686Z,25.20
2022-12-18T17:05:13.608Z,25.35
2022-12-18T17:07:44.223Z,25.23
2022-12-18T17:10:14.342Z,25.23
2022-12-18T17:12:44.076Z,25.17
2022-12-18T17:15:13.864Z,25.21
2022-12-18T17:17:43.579Z,25.24
2022-12-18T17:20:13.641Z,25.13
2022-12-18T17:22:43.371Z,24.91
2022-12-18T17:25:13.062Z,24.76
2022-12-18T17:27:42.827Z,24.60
2022-12-18T17:30:13.115Z,24.46
2022-12-18T17:32:43.527Z,24.30
2022-12-18T17:35:13.397Z,24.22
2022-12-18T17:37:43.128Z,24.09
2022-12-18T17:40:13.279Z,24.00
2022-12-18T17:42:43.031Z,23.81
2022-12-18T17:45:13.335Z,23.74
2022-12-18T17:47:43.385Z,23.71
2022-12-18T17:50:13.299Z,23.71
2022-12-18T17:52:43.245Z,23.64
2022-12-18T17:55:13.511Z,23.74
2022-12-18T17:57:43.780Z,23.85
2022-12-18T18:00:14.074Z,23.87
2022-12-18T18:02:45.187Z,23.82
2022-12-18T18:05:16.278Z,23.87
2022-12-18T18:07:47.536Z,23.85
2022-12-18T18:10:18.032Z,23.94
2022-12-18T18:13:06.191Z,23.97
2022-12-18T18:15:36.141Z,24.04
2022-12-18T18:18:08.796Z,24.00
2022-12-18T18:20:43.802Z,24.17
2022-12-18T18:23:15.020Z,24.25
2022-12-18T18:25:44.961Z,24.33
2022-12-18T18:28:15.259Z,24.32
2022-12-18T18:30:45.005Z,24.45
2022-12-18T18:33:14.968Z,24.62
2022-12-18T18:35:53.820Z,24.69
2022-12-18T18:38:24.348Z,24.75
2022-12-18T18:41:04.580Z,24.76
2022-12-18T18:43:35.324Z,24.88
2022-12-18T18:46:07.102Z,24.80
2022-12-18T18:48:38.626Z,24.93
2022-12-18T18:51:20.651Z,24.91
2022-12-18T18:53:54.054Z,24.76
2022-12-18T18:59:19.171Z,24.56
2022-12-18T19:01:54.553Z,24.35
2022-12-18T19:04:24.660Z,24.36
2022-12-18T19:06:55.459Z,24.45
2022-12-18T19:09:28.388Z,24.45
2022-12-18T19:12:17.916Z,24.59
2022-12-18T19:14:48.076Z,24.76
2022-12-18T19:17:18.210Z,24.65
2022-12-18T19:19:48.639Z,24.75
2022-12-18T19:22:21.173Z,24.75
2022-12-18T19:24:51.629Z,24.75
2022-12-18T19:27:21.406Z,24.69
2022-12-18T19:29:51.942Z,24.79
2022-12-18T19:32:22.194Z,24.88
2022-12-18T19:34:56.147Z,25.04
2022-12-18T19:37:26.973Z,25.23
2022-12-18T19:39:57.719Z,25.35
2022-12-18T19:42:34.812Z,25.20
2022-12-18T19:45:08.656Z,25.20
2022-12-18T19:47:38.732Z,25.20
2022-12-18T19:50:09.251Z,24.98
2022-12-18T19:52:39.025Z,24.82
2022-12-18T19:55:09.691Z,24.56
2022-12-18T19:57:39.406Z,24.72
2022-12-18T20:00:14.154Z,24.77
2022-12-18T20:02:48.656Z,24.87
2022-12-18T20:05:24.405Z,24.94
2022-12-18T20:07:54.612Z,25.02
2022-12-18T20:10:24.451Z,25.00
2022-12-18T20:12:54.179Z,25.18
2022-12-18T20:15:25.405Z,25.17
2022-12-18T20:17:55.434Z,25.10
2022-12-18T20:20:25.458Z,25.07
2022-12-18T20:22:55.571Z,24.82
2022-12-18T20:25:25.346Z,24.53
2022-12-18T20:27:55.641Z,24.35
2022-12-18T20:30:25.560Z,24.17
2022-12-18T20:32:55.636Z,24.04
2022-12-18T20:35:29.253Z,24.05
2022-12-18T20:38:00.886Z,24.05
2022-12-18T20:40:31.791Z,23.96
2022-12-18T20:43:01.670Z,23.85
2022-12-18T20:45:31.453Z,23.74
2022-12-18T20:48:02.701Z,23.74
2022-12-18T20:50:32.864Z,23.77
2022-12-18T20:53:02.842Z,23.87
2022-12-18T20:55:32.632Z,23.97
2022-12-18T20:58:02.613Z,23.97
2022-12-18T21:00:32.433Z,23.89
2022-12-18T21:03:02.260Z,23.73
2022-12-18T21:05:32.560Z,23.60
2022-12-18T21:08:03.043Z,23.49
2022-12-18T21:10:32.728Z,23.34
2022-12-18T21:13:04.582Z,23.33
2022-12-18T21:15:37.104Z,23.24
2022-12-18T21:18:07.456Z,23.08
2022-12-18T21:20:37.447Z,23.03
2022-12-18T21:23:15.579Z,22.88
2022-12-18T21:25:46.946Z,22.81
2022-12-18T21:28:19.783Z,22.69
2022-12-18T21:30:50.223Z,22.55
2022-12-18T21:33:20.006Z,22.43
2022-12-18T21:35:49.818Z,22.30
2022-12-18T21:38:19.547Z,22.13
2022-12-18T21:40:49.496Z,22.04
2022-12-18T21:43:37.545Z,21.94
2022-12-18T21:46:07.989Z,21.89
2022-12-18T21:48:40.140Z,21.90
2022-12-18T21:51:10.668Z,21.96
2022-12-18T21:53:40.390Z,21.83
2022-12-18T21:56:11.009Z,21.72
2022-12-18T21:58:55.420Z,21.62
2022-12-18T22:01:31.512Z,21.56
2022-12-18T22:04:08.453Z,21.44
2022-12-18T22:06:38.563Z,21.32
2022-12-18T22:09:09.076Z,21.21
2022-12-18T22:11:39.427Z,21.15
2022-12-18T22:14:10.018Z,21.11
2022-12-18T22:16:40.196Z,21.07
2022-12-18T22:19:12.878Z,21.01
2022-12-18T22:21:47.473Z,20.98
2022-12-18T22:24:21.495Z,20.91
2022-12-18T22:26:54.176Z,20.83
2022-12-18T22:29:47.489Z,20.70
2022-12-18T22:32:30.781Z,20.66
2022-12-18T22:35:10.628Z,20.65
2022-12-18T22:37:45.622Z,20.60
2022-12-18T22:40:26.460Z,20.53
2022-12-18T22:42:57.215Z,20.40
2022-12-18T22:45:29.471Z,20.30
2022-12-18T22:47:59.983Z,20.22
2022-12-18T22:50:29.752Z,20.19
2022-12-18T22:52:59.447Z,20.22
2022-12-18T22:55:29.169Z,20.18
2022-12-18T22:57:58.893Z,20.19
2022-12-18T23:00:28.655Z,20.15
2022-12-18T23:03:00.946Z,20.14
2022-12-18T23:05:32.843Z,20.16
2022-12-18T23:08:03.016Z,20.18
2022-12-18T23:10:33.060Z,20.15
2022-12-18T23:13:02.847Z,20.14
2022-12-18T23:15:32.569Z,20.09
2022-12-18T23:18:03.419Z,20.08
2022-12-18T23:20:33.417Z,20.02
2022-12-18T23:23:04.382Z,20.01
2022-12-18T23:25:34.197Z,20.01
2022-12-18T23:28:04.328Z,19.97
2022-12-18T23:30:34.405Z,19.97
2022-12-18T23:33:04.137Z,19.99
2022-12-18T23:35:33.989Z,19.95
2022-12-18T23:38:04.013Z,19.89
2022-12-18T23:40:33.801Z,19.94
2022-12-18T23:43:03.631Z,19.89
2022-12-18T23:45:33.515Z,19.85
2022-12-18T23:48:03.282Z,19.89
2022-12-18T23:50:35.790Z,19.88
2022-12-18T23:53:06.187Z,19.84
2022-12-18T23:55:41.038Z,19.77
2022-12-18T23:58:21.662Z,19.74
